createdAt,value
2019-06-01T00:02:17.046Z,2.20
2019-06-01T00:04:45.259Z,1.90
2019-06-01T00:07:12.781Z,2.00
2019-06-01T00:09:43.034Z,2.10
2019-06-01T00:12:10.620Z,2.23
2019-06-01T00:14:39.545Z,2.13
2019-06-01T00:17:07.360Z,2.10
2019-06-01T00:19:34.825Z,2.20
2019-06-01T00:22:02.317Z,2.27
2019-06-01T00:24:31.557Z,2.10
2019-06-01T00:26:59.069Z,2.57
2019-06-01T00:29:26.505Z,2.43
2019-06-01T00:31:53.984Z,2.40
2019-06-01T00:34:21.419Z,2.20
2019-06-01T00:36:49.665Z,2.00
2019-06-01T00:39:17.132Z,2.50
2019-06-01T00:41:48.042Z,2.53
2019-06-01T00:44:16.969Z,2.53
2019-06-01T00:46:44.526Z,2.63
2019-06-01T00:49:13.231Z,2.30
2019-06-01T00:51:40.610Z,2.30
2019-06-01T00:54:08.061Z,2.40
2019-06-01T00:56:35.504Z,2.40
2019-06-01T00:59:03.042Z,2.40
2019-06-01T01:01:30.572Z,2.37
2019-06-01T01:03:58.060Z,2.30
2019-06-01T01:06:26.425Z,2.13
2019-06-01T01:08:55.314Z,3.10
2019-06-01T01:11:23.129Z,2.90
2019-06-01T01:13:51.282Z,2.87
2019-06-01T01:16:19.938Z,3.03
2019-06-01T01:18:47.731Z,2.90
2019-06-01T01:21:17.544Z,3.07
2019-06-01T01:23:46.101Z,2.83
2019-06-01T01:26:13.610Z,2.87
2019-06-01T01:28:41.083Z,2.70
2019-06-01T01:31:13.825Z,2.40
2019-06-01T01:33:38.872Z,3.00
2019-06-01T01:36:08.330Z,3.20
2019-06-01T01:38:35.875Z,3.17
2019-06-01T01:41:03.380Z,3.00
2019-06-01T01:43:31.033Z,2.80
2019-06-01T01:45:58.994Z,3.40
2019-06-01T01:48:26.703Z,2.80
2019-06-01T01:50:54.356Z,2.40
2019-06-01T01:53:23.494Z,2.33
2019-06-01T01:55:51.047Z,2.60
2019-06-01T01:58:18.469Z,2.77
2019-06-01T02:00:49.548Z,2.47
2019-06-01T02:03:17.045Z,2.70
2019-06-01T02:05:44.475Z,2.27
2019-06-01T02:08:14.598Z,2.50
2019-06-01T02:10:42.363Z,2.70
2019-06-01T02:13:09.960Z,3.13
2019-06-01T02:15:41.060Z,2.60
2019-06-01T02:18:10.432Z,2.00
2019-06-01T02:20:41.329Z,2.43
2019-06-01T02:23:10.587Z,1.90
2019-06-01T02:25:38.354Z,2.60
2019-06-01T02:28:05.883Z,2.50
2019-06-01T02:30:34.560Z,2.30
2019-06-01T02:33:04.941Z,2.90
2019-06-01T02:35:32.433Z,2.43
2019-06-01T02:38:19.452Z,2.60
2019-06-01T02:40:46.897Z,2.40
2019-06-01T02:43:14.227Z,2.23
2019-06-01T02:45:41.721Z,2.53
2019-06-01T02:48:09.190Z,2.60
2019-06-01T02:50:36.658Z,2.73
2019-06-01T02:53:04.196Z,2.43
2019-06-01T02:55:31.629Z,2.17
2019-06-01T02:58:00.242Z,2.57
2019-06-01T03:01:06.912Z,2.50
2019-06-01T03:03:34.632Z,2.87
2019-06-01T03:06:03.536Z,2.10
2019-06-01T03:08:33.017Z,2.43
2019-06-01T03:11:02.475Z,2.50
2019-06-01T03:13:32.450Z,2.87
2019-06-01T03:16:03.294Z,2.90
2019-06-01T03:18:33.699Z,2.50
2019-06-01T03:21:05.027Z,2.70
2019-06-01T03:23:34.636Z,2.50
2019-06-01T03:26:04.498Z,2.07
2019-06-01T03:28:37.030Z,2.40
2019-06-01T03:31:06.372Z,2.57
2019-06-01T03:33:33.759Z,2.53
2019-06-01T03:36:02.733Z,2.67
2019-06-01T03:38:32.458Z,2.40
2019-06-01T03:41:00.041Z,2.10
2019-06-01T03:43:27.908Z,2.10
2019-06-01T03:45:55.776Z,2.50
2019-06-01T03:48:23.191Z,2.30
2019-06-01T03:50:50.590Z,2.30
2019-06-01T03:53:18.055Z,2.10
2019-06-01T03:55:45.490Z,1.97
2019-06-01T03:58:12.971Z,2.23
2019-06-01T04:00:40.402Z,2.10
2019-06-01T04:03:07.842Z,2.47
2019-06-01T04:05:35.307Z,2.57
2019-06-01T04:08:03.445Z,2.20
2019-06-01T04:10:31.010Z,2.30
2019-06-01T04:12:58.542Z,2.20
2019-06-01T04:15:26.005Z,2.00
2019-06-01T04:17:53.466Z,1.93
2019-06-01T04:20:20.917Z,2.00
2019-06-01T04:22:48.447Z,2.00
2019-06-01T04:25:15.903Z,2.17
2019-06-01T04:27:43.426Z,2.10
2019-06-01T04:30:11.507Z,2.00
2019-06-01T04:32:49.477Z,2.30
2019-06-01T04:35:09.052Z,2.13
2019-06-01T04:37:36.801Z,1.93
2019-06-01T04:40:05.285Z,2.20
2019-06-01T04:42:33.130Z,2.10
2019-06-01T04:45:00.563Z,2.03
2019-06-01T04:47:28.095Z,1.87
2019-06-01T04:49:55.567Z,1.80
2019-06-01T04:52:23.112Z,2.10
2019-06-01T04:54:52.655Z,1.80
2019-06-01T04:57:20.297Z,1.93
2019-06-01T04:59:47.917Z,2.20
2019-06-01T05:02:20.004Z,2.07
2019-06-01T05:04:49.679Z,1.70
2019-06-01T05:07:19.482Z,1.93
2019-06-01T05:09:58.239Z,1.67
2019-06-01T05:12:26.853Z,1.80
2019-06-01T05:14:55.304Z,1.70
2019-06-01T05:17:27.074Z,2.00
2019-06-01T05:19:54.891Z,1.80
2019-06-01T05:22:25.022Z,1.80
2019-06-01T05:24:52.589Z,1.60
2019-06-01T05:27:21.930Z,1.70
2019-06-01T05:29:50.248Z,1.70
2019-06-01T05:32:19.636Z,1.53
2019-06-01T05:34:55.222Z,1.80
2019-06-01T05:37:24.963Z,1.67
2019-06-01T05:39:52.843Z,1.67
2019-06-01T05:42:20.289Z,1.50
2019-06-01T05:44:47.759Z,1.70
2019-06-01T05:47:16.161Z,1.50
2019-06-01T05:49:44.240Z,2.03
2019-06-01T05:52:12.410Z,1.70
2019-06-01T05:54:39.997Z,1.60
2019-06-01T05:57:07.437Z,1.70
2019-06-01T05:59:35.005Z,1.70
2019-06-01T06:02:02.437Z,1.70
2019-06-01T06:04:29.877Z,1.60
2019-06-01T06:06:57.391Z,1.70
2019-06-01T06:09:24.925Z,1.70
2019-06-01T06:11:53.957Z,1.80
2019-06-01T06:14:22.580Z,1.93
2019-06-01T06:16:50.137Z,1.47
2019-06-01T06:19:20.470Z,2.03
2019-06-01T06:21:46.937Z,2.00
2019-06-01T06:24:14.370Z,1.93
2019-06-01T06:26:41.850Z,2.17
2019-06-01T06:29:09.365Z,2.03
2019-06-01T06:31:36.835Z,1.70
2019-06-01T06:34:04.464Z,2.03
2019-06-01T06:36:32.354Z,1.70
2019-06-01T06:39:00.010Z,1.50
2019-06-01T06:41:27.437Z,1.60
2019-06-01T06:43:55.042Z,1.87
2019-06-01T06:46:22.858Z,1.70
2019-06-01T06:48:50.538Z,1.50
2019-06-01T06:51:19.240Z,1.73
2019-06-01T06:53:46.669Z,1.90
2019-06-01T06:56:14.178Z,1.60
2019-06-01T06:58:41.626Z,1.60
2019-06-01T07:01:12.004Z,1.60
2019-06-01T07:03:38.367Z,1.73
2019-06-01T07:06:05.824Z,1.93
2019-06-01T07:08:33.416Z,2.00
2019-06-01T07:11:01.191Z,1.67
2019-06-01T07:13:28.620Z,1.53
2019-06-01T07:15:56.113Z,1.57
2019-06-01T07:18:23.708Z,1.37
2019-06-01T07:20:51.493Z,1.90
2019-06-01T07:23:19.562Z,1.50
2019-06-01T07:25:46.993Z,1.50
2019-06-01T07:28:14.612Z,1.67
2019-06-01T07:30:50.400Z,1.70
2019-06-01T07:33:11.297Z,1.80
2019-06-01T07:35:38.789Z,1.60
2019-06-01T07:38:06.215Z,1.43
2019-06-01T07:40:33.706Z,1.60
2019-06-01T07:43:01.130Z,1.73
2019-06-01T07:45:29.388Z,1.50
2019-06-01T07:47:57.867Z,1.63
2019-06-01T07:50:25.986Z,1.73
2019-06-01T07:52:54.402Z,1.63
2019-06-01T07:55:23.370Z,1.70
2019-06-01T07:57:50.982Z,1.60
2019-06-01T08:00:18.538Z,1.50
2019-06-01T08:02:46.009Z,1.53
2019-06-01T08:05:13.402Z,1.73
2019-06-01T08:07:40.915Z,1.80
2019-06-01T08:10:08.409Z,1.60
2019-06-01T08:12:36.450Z,1.50
2019-06-01T08:15:04.899Z,1.70
2019-06-01T08:17:32.351Z,1.80
2019-06-01T08:19:59.829Z,1.60
2019-06-01T08:22:27.989Z,1.70
2019-06-01T08:24:55.826Z,1.60
2019-06-01T08:27:24.296Z,1.60
2019-06-01T08:29:51.932Z,1.70
2019-06-01T08:32:20.021Z,1.93
2019-06-01T08:34:47.443Z,1.90
2019-06-01T08:37:15.219Z,1.93
2019-06-01T08:39:46.393Z,2.43
2019-06-01T08:42:13.928Z,2.10
2019-06-01T08:44:41.453Z,2.00
2019-06-01T08:47:09.567Z,2.27
2019-06-01T08:49:37.098Z,2.27
2019-06-01T08:52:04.575Z,2.10
2019-06-01T08:54:32.381Z,2.10
2019-06-01T08:56:59.832Z,2.30
2019-06-01T08:59:28.392Z,2.27
2019-06-01T09:01:55.833Z,2.50
2019-06-01T09:04:24.502Z,2.60
2019-06-01T09:06:51.997Z,2.70
2019-06-01T09:09:19.487Z,3.10
2019-06-01T09:11:46.979Z,3.20
2019-06-01T09:14:14.613Z,2.93
2019-06-01T09:16:42.067Z,3.00
2019-06-01T09:19:11.354Z,2.80
2019-06-01T09:21:41.717Z,2.80
2019-06-01T09:24:09.142Z,2.90
2019-06-01T09:26:36.732Z,2.80
2019-06-01T09:29:04.563Z,3.30
2019-06-01T09:31:32.396Z,2.87
2019-06-01T09:34:00.259Z,2.83
2019-06-01T09:36:28.314Z,2.63
2019-06-01T09:38:55.818Z,2.70
2019-06-01T09:41:23.281Z,2.80
2019-06-01T09:43:50.837Z,2.57
2019-06-01T09:46:18.350Z,3.10
2019-06-01T09:48:45.783Z,2.57
2019-06-01T09:51:13.232Z,3.10
2019-06-01T09:53:40.696Z,2.87
2019-06-01T09:56:08.223Z,2.87
2019-06-01T09:58:36.896Z,2.60
2019-06-01T10:01:05.144Z,3.10
2019-06-01T10:03:32.663Z,2.77
2019-06-01T10:06:02.103Z,3.00
2019-06-01T10:08:29.510Z,3.57
2019-06-01T10:10:57.006Z,3.13
2019-06-01T10:13:24.659Z,2.90
2019-06-01T10:15:56.565Z,3.40
2019-06-01T10:18:26.876Z,3.07
2019-06-01T10:20:53.326Z,3.33
2019-06-01T10:23:20.745Z,2.97
2019-06-01T10:25:48.277Z,2.83
2019-06-01T10:28:15.822Z,2.80
2019-06-01T10:30:43.348Z,2.80
2019-06-01T10:33:10.789Z,2.70
2019-06-01T10:35:38.970Z,2.90
2019-06-01T10:38:06.532Z,2.57
2019-06-01T10:40:35.045Z,2.30
2019-06-01T10:43:02.826Z,2.73
2019-06-01T10:45:33.544Z,2.90
2019-06-01T10:48:00.970Z,2.70
2019-06-01T10:50:28.521Z,2.80
2019-06-01T10:52:56.028Z,2.70
2019-06-01T10:55:23.433Z,2.73
2019-06-01T10:57:50.873Z,2.87
2019-06-01T11:00:36.447Z,3.00
2019-06-01T11:02:48.271Z,2.70
2019-06-01T11:05:15.785Z,3.20
2019-06-01T11:07:43.360Z,3.00
2019-06-01T11:10:11.209Z,2.83
2019-06-01T11:12:39.580Z,3.17
2019-06-01T11:15:07.273Z,3.20
2019-06-01T11:17:34.916Z,3.13
2019-06-01T11:20:02.652Z,3.17
2019-06-01T11:22:30.207Z,3.73
2019-06-01T11:24:57.664Z,3.70
2019-06-01T11:27:25.195Z,4.00
2019-06-01T11:29:52.708Z,4.13
2019-06-01T11:32:20.198Z,5.10
2019-06-01T11:34:47.717Z,4.93
2019-06-01T11:37:17.305Z,5.27
2019-06-01T11:39:44.912Z,5.83
2019-06-01T11:42:12.370Z,5.30
2019-06-01T11:44:40.691Z,5.47
2019-06-01T11:47:09.015Z,5.50
2019-06-01T11:49:36.717Z,5.73
2019-06-01T11:52:06.981Z,6.20
2019-06-01T11:54:35.077Z,6.03
2019-06-01T11:57:03.563Z,6.13
2019-06-01T11:59:30.993Z,6.40
2019-06-01T12:02:02.402Z,6.00
2019-06-01T12:04:33.675Z,5.67
2019-06-01T12:07:16.901Z,5.70
2019-06-01T12:09:37.654Z,5.70
2019-06-01T12:12:10.504Z,5.90
2019-06-01T12:14:40.251Z,6.10
2019-06-01T12:17:10.288Z,6.20
2019-06-01T12:19:47.012Z,5.43
2019-06-01T12:22:16.212Z,5.23
2019-06-01T12:24:47.361Z,5.27
2019-06-01T12:27:14.877Z,5.40
2019-06-01T12:29:45.859Z,4.93
2019-06-01T12:32:13.589Z,5.30
2019-06-01T12:34:41.977Z,5.80
2019-06-01T12:37:13.923Z,6.20
2019-06-01T12:39:42.317Z,5.67
2019-06-01T12:42:10.611Z,5.30
2019-06-01T12:44:39.658Z,5.30
2019-06-01T12:47:07.885Z,5.43
2019-06-01T12:49:36.874Z,5.83
2019-06-01T12:52:04.431Z,5.03
2019-06-01T12:54:32.293Z,5.50
2019-06-01T12:57:00.437Z,5.47
2019-06-01T12:59:30.836Z,5.53
2019-06-01T13:01:58.360Z,5.70
2019-06-01T13:04:25.868Z,5.20
2019-06-01T13:06:54.231Z,5.83
2019-06-01T13:09:24.012Z,5.90
2019-06-01T13:12:11.373Z,5.87
2019-06-01T13:14:39.620Z,6.30
2019-06-01T13:17:08.760Z,6.27
2019-06-01T13:19:36.160Z,5.97
2019-06-01T13:22:26.190Z,6.23
2019-06-01T13:24:55.602Z,5.90
2019-06-01T13:27:23.849Z,6.20
2019-06-01T13:29:55.642Z,6.23
2019-06-01T13:32:23.135Z,6.77
2019-06-01T13:34:51.330Z,6.70
2019-06-01T13:37:19.130Z,6.97
2019-06-01T13:39:52.551Z,7.13
2019-06-01T13:42:15.927Z,6.57
2019-06-01T13:44:43.536Z,6.73
2019-06-01T13:47:10.995Z,6.93
2019-06-01T13:49:38.468Z,7.60
2019-06-01T13:52:05.896Z,7.57
2019-06-01T13:54:33.491Z,7.43
2019-06-01T13:57:00.947Z,8.20
2019-06-01T13:59:28.474Z,7.53
2019-06-01T14:01:55.975Z,8.13
2019-06-01T14:04:23.413Z,8.47
2019-06-01T14:06:51.149Z,8.70
2019-06-01T14:09:21.840Z,8.80
2019-06-01T14:11:49.286Z,8.90
2019-06-01T14:14:16.748Z,8.47
2019-06-01T14:16:45.375Z,9.17
2019-06-01T14:19:13.065Z,9.63
2019-06-01T14:21:40.552Z,9.10
2019-06-01T14:24:08.051Z,9.23
2019-06-01T14:26:35.616Z,9.60
2019-06-01T14:29:03.163Z,9.53
2019-06-01T14:31:30.748Z,10.00
2019-06-01T14:33:58.496Z,10.20
2019-06-01T14:36:26.001Z,11.73
2019-06-01T14:38:56.302Z,11.33
2019-06-01T14:41:22.672Z,11.53
2019-06-01T14:43:51.190Z,10.73
2019-06-01T14:46:19.081Z,10.87
2019-06-01T14:48:47.412Z,10.43
2019-06-01T14:51:15.370Z,11.00
2019-06-01T14:53:42.910Z,10.93
2019-06-01T14:56:10.472Z,10.63
2019-06-01T14:58:37.914Z,11.20
2019-06-01T15:01:05.438Z,11.07
2019-06-01T15:03:32.962Z,9.73
2019-06-01T15:06:00.463Z,9.77
2019-06-01T15:08:27.961Z,9.43
2019-06-01T15:10:58.892Z,9.97
2019-06-01T15:13:26.698Z,9.93
2019-06-01T15:15:55.558Z,10.20
2019-06-01T15:18:23.242Z,11.27
2019-06-01T15:20:53.791Z,10.07
2019-06-01T15:23:21.327Z,9.50
2019-06-01T15:25:50.147Z,9.77
2019-06-01T15:28:18.161Z,10.07
2019-06-01T15:30:46.128Z,10.00
2019-06-01T15:33:13.598Z,9.50
2019-06-01T15:35:41.283Z,9.93
2019-06-01T15:38:08.756Z,9.83
2019-06-01T15:40:36.503Z,10.03
2019-06-01T15:43:04.105Z,11.23
2019-06-01T15:45:31.553Z,11.97
2019-06-01T15:47:59.796Z,11.03
2019-06-01T15:50:27.272Z,8.70
2019-06-01T15:52:55.026Z,8.00
2019-06-01T15:55:22.650Z,7.40
2019-06-01T15:57:49.949Z,7.30
2019-06-01T16:00:17.426Z,7.07
2019-06-01T16:02:45.170Z,6.80
2019-06-01T16:05:12.901Z,5.57
2019-06-01T16:07:40.666Z,5.40
2019-06-01T16:10:08.766Z,6.00
2019-06-01T16:12:36.264Z,5.70
2019-06-01T16:15:04.719Z,5.93
2019-06-01T16:17:32.118Z,4.80
2019-06-01T16:19:59.990Z,4.90
2019-06-01T16:22:27.546Z,5.17
2019-06-01T16:24:56.166Z,5.30
2019-06-01T16:27:23.915Z,4.73
2019-06-01T16:29:51.359Z,4.60
2019-06-01T16:32:18.876Z,4.43
2019-06-01T16:34:46.337Z,4.53
2019-06-01T16:37:13.820Z,4.67
2019-06-01T16:39:41.309Z,4.60
2019-06-01T16:42:08.776Z,4.97
2019-06-01T16:44:36.246Z,5.10
2019-06-01T16:47:04.535Z,5.00
2019-06-01T16:49:31.947Z,5.10
2019-06-01T16:52:01.150Z,5.33
2019-06-01T16:54:28.933Z,5.20
2019-06-01T16:56:56.429Z,5.20
2019-06-01T16:59:24.040Z,5.53
2019-06-01T17:01:51.574Z,5.57
2019-06-01T17:04:19.043Z,5.63
2019-06-01T17:06:46.981Z,6.00
2019-06-01T17:09:14.551Z,5.93
2019-06-01T17:11:42.102Z,5.93
2019-06-01T17:14:09.700Z,5.77
2019-06-01T17:16:37.292Z,6.20
2019-06-01T17:19:05.275Z,6.07
2019-06-01T17:21:38.610Z,6.70
2019-06-01T17:24:06.101Z,6.70
2019-06-01T17:26:33.590Z,6.83
2019-06-01T17:29:02.131Z,6.07
2019-06-01T17:31:29.696Z,6.40
2019-06-01T17:33:58.363Z,6.63
2019-06-01T17:36:25.926Z,6.40
2019-06-01T17:38:53.431Z,6.60
2019-06-01T17:41:20.980Z,6.10
2019-06-01T17:43:48.480Z,7.07
2019-06-01T17:46:16.055Z,7.37
2019-06-01T17:48:43.711Z,7.57
2019-06-01T17:51:11.201Z,6.90
2019-06-01T17:53:38.695Z,7.00
2019-06-01T17:56:06.457Z,7.13
2019-06-01T17:58:34.028Z,7.10
2019-06-01T18:01:01.953Z,6.97
2019-06-01T18:03:29.579Z,7.47
2019-06-01T18:05:57.309Z,7.43
2019-06-01T18:08:24.779Z,6.83
2019-06-01T18:10:54.338Z,7.10
2019-06-01T18:13:22.195Z,6.93
2019-06-01T18:15:51.753Z,6.87
2019-06-01T18:18:19.389Z,6.50
2019-06-01T18:20:47.227Z,6.73
2019-06-01T18:23:14.693Z,7.00
2019-06-01T18:25:42.415Z,6.70
2019-06-01T18:28:18.256Z,7.00
2019-06-01T18:30:39.789Z,6.83
2019-06-01T18:33:09.007Z,6.30
2019-06-01T18:35:36.573Z,6.43
2019-06-01T18:38:05.759Z,6.07
2019-06-01T18:40:33.685Z,6.80
2019-06-01T18:43:05.818Z,6.60
2019-06-01T18:45:33.944Z,6.43
2019-06-01T18:48:01.537Z,6.63
2019-06-01T18:50:29.103Z,6.90
2019-06-01T18:52:56.686Z,7.93
2019-06-01T18:55:27.504Z,7.00
2019-06-01T18:57:57.310Z,6.93
2019-06-01T19:00:25.136Z,6.77
2019-06-01T19:02:59.726Z,6.77
2019-06-01T19:05:27.284Z,6.67
2019-06-01T19:07:57.006Z,6.30
2019-06-01T19:10:31.913Z,7.13
2019-06-01T19:13:07.717Z,7.10
2019-06-01T19:15:35.163Z,7.00
2019-06-01T19:18:02.744Z,6.77
2019-06-01T19:20:33.146Z,7.57
2019-06-01T19:22:59.704Z,7.23
2019-06-01T19:25:27.247Z,7.80
2019-06-01T19:27:54.713Z,7.23
2019-06-01T19:30:54.072Z,6.97
2019-06-01T19:33:21.625Z,7.30
2019-06-01T19:35:49.898Z,7.80
2019-06-01T19:38:19.278Z,7.87
2019-06-01T19:40:47.028Z,8.00
2019-06-01T19:43:15.704Z,7.70
2019-06-01T19:45:43.700Z,7.53
2019-06-01T19:48:12.296Z,7.83
2019-06-01T19:50:42.982Z,7.57
2019-06-01T19:53:10.632Z,7.10
2019-06-01T19:55:38.355Z,7.93
2019-06-01T19:58:07.723Z,9.20
2019-06-01T20:00:35.268Z,9.00
2019-06-01T20:03:02.861Z,7.10
2019-06-01T20:05:30.368Z,7.40
2019-06-01T20:07:57.928Z,6.90
2019-06-01T20:10:25.532Z,6.87
2019-06-01T20:12:52.889Z,6.70
2019-06-01T20:15:21.543Z,6.73
2019-06-01T20:17:49.031Z,6.90
2019-06-01T20:20:19.607Z,7.23
2019-06-01T20:22:47.558Z,7.70
2019-06-01T20:25:17.399Z,6.80
2019-06-01T20:27:45.067Z,6.43
2019-06-01T20:30:13.761Z,6.43
2019-06-01T20:32:41.456Z,6.50
2019-06-01T20:35:08.933Z,6.90
2019-06-01T20:37:36.452Z,6.27
2019-06-01T20:40:05.036Z,6.47
2019-06-01T20:42:33.088Z,6.70
2019-06-01T20:45:00.826Z,6.60
2019-06-01T20:47:28.295Z,6.50
2019-06-01T20:49:55.851Z,6.43
2019-06-01T20:52:23.383Z,7.37
2019-06-01T20:54:50.850Z,6.77
2019-06-01T20:57:19.614Z,6.87
2019-06-01T20:59:47.420Z,6.17
2019-06-01T21:02:15.721Z,6.97
2019-06-01T21:04:43.280Z,6.70
2019-06-01T21:07:10.797Z,6.37
2019-06-01T21:09:38.379Z,5.77
2019-06-01T21:12:05.899Z,6.47
2019-06-01T21:14:34.705Z,6.13
2019-06-01T21:17:02.482Z,6.50
2019-06-01T21:19:29.952Z,6.10
2019-06-01T21:21:57.478Z,6.40
2019-06-01T21:24:25.252Z,6.63
2019-06-01T21:26:52.786Z,6.67
2019-06-01T21:29:20.902Z,7.17
2019-06-01T21:31:48.516Z,7.03
2019-06-01T21:34:17.016Z,6.17
2019-06-01T21:36:44.966Z,6.70
2019-06-01T21:39:12.514Z,6.63
2019-06-01T21:41:40.122Z,6.60
2019-06-01T21:44:07.561Z,7.00
2019-06-01T21:46:35.593Z,6.70
2019-06-01T21:49:03.274Z,6.53
2019-06-01T21:51:30.730Z,6.30
2019-06-01T21:53:58.369Z,6.63
2019-06-01T21:56:26.683Z,6.07
2019-06-01T21:58:54.443Z,5.77
2019-06-01T22:01:22.674Z,6.00
2019-06-01T22:03:50.603Z,5.70
2019-06-01T22:06:19.062Z,6.07
2019-06-01T22:08:52.593Z,6.10
2019-06-01T22:11:17.212Z,5.77
2019-06-01T22:13:44.772Z,6.30
2019-06-01T22:16:12.336Z,5.80
2019-06-01T22:18:39.773Z,5.90
2019-06-01T22:21:07.340Z,6.13
2019-06-01T22:23:34.872Z,5.90
2019-06-01T22:26:02.331Z,6.10
2019-06-01T22:28:29.837Z,5.63
2019-06-01T22:30:57.267Z,5.83
2019-06-01T22:33:24.781Z,6.40
2019-06-01T22:35:52.241Z,5.83
2019-06-01T22:38:19.730Z,5.83
2019-06-01T22:40:47.344Z,5.73
2019-06-01T22:43:14.785Z,5.97
2019-06-01T22:45:42.312Z,6.00
2019-06-01T22:48:09.887Z,5.90
2019-06-01T22:50:37.390Z,5.73
2019-06-01T22:53:04.876Z,5.43
2019-06-01T22:55:32.636Z,5.87
2019-06-01T22:58:02.036Z,6.10
2019-06-01T23:00:29.877Z,6.03
2019-06-01T23:02:57.626Z,6.03
2019-06-01T23:05:25.395Z,5.90
2019-06-01T23:07:52.963Z,6.33
2019-06-01T23:10:24.582Z,6.10
2019-06-01T23:12:49.748Z,5.53
2019-06-01T23:15:17.278Z,6.00
2019-06-01T23:17:44.716Z,6.50
2019-06-01T23:20:12.344Z,6.70
2019-06-01T23:22:39.802Z,6.30
2019-06-01T23:25:07.420Z,5.97
2019-06-01T23:27:34.913Z,6.23
2019-06-01T23:30:02.583Z,5.10
2019-06-01T23:32:30.711Z,5.97
2019-06-01T23:34:58.660Z,6.07
2019-06-01T23:37:26.679Z,5.93
2019-06-01T23:39:54.434Z,5.50
2019-06-01T23:42:23.125Z,5.90
2019-06-01T23:44:50.519Z,5.90
2019-06-01T23:47:17.967Z,5.97
2019-06-01T23:49:45.897Z,5.83
2019-06-01T23:52:13.423Z,6.20
2019-06-01T23:54:40.869Z,6.40
2019-06-01T23:57:08.416Z,5.87
2019-06-01T23:59:35.823Z,5.80
